Time;durP1;ratioP1;P1;durP2;ratioP2;P2;SDS_P1;SDS_P2;PMS_P1;PMS_P2;Temp;Humidity;BMP_temperature;BMP_pressure;BME280_temperature;BME280_humidity;BME280_pressure;Samples;Min_cycle;Max_cycle;Signal;HPM_P1;HPM_P2
2021/05/14 00:01:37;;;;;;;0.50;0.47;;;;;;;;;;5031968;28;20384;-74
2021/05/14 00:04:03;;;;;;;0.60;0.30;;;;;;;;;;5050020;28;20033;-74
2021/05/14 00:06:29;;;;;;;1.45;0.90;;;;;;;;;;5049811;28;20945;-74
2021/05/14 00:08:56;;;;;;;0.50;0.50;;;;;;;;;;5049902;28;20029;-74
2021/05/14 00:11:22;;;;;;;0.30;0.30;;;;;;;;;;5049202;28;20147;-74
2021/05/14 00:13:48;;;;;;;1.02;0.93;;;;;;;;;;5050023;28;20036;-74
2021/05/14 00:16:14;;;;;;;0.85;0.50;;;;;;;;;;5049098;28;20037;-74
2021/05/14 00:18:40;;;;;;;0.52;0.38;;;;;;;;;;5049613;28;20025;-74
2021/05/14 00:21:06;;;;;;;0.90;0.50;;;;;;;;;;5049536;28;20353;-75
2021/05/14 00:23:32;;;;;;;1.08;0.43;;;;;;;;;;5049598;28;20025;-74
2021/05/14 00:25:58;;;;;;;2.38;0.50;;;;;;;;;;5054133;28;20053;-74
2021/05/14 00:28:24;;;;;;;1.20;0.47;;;;;;;;;;5053271;28;20033;-74
2021/05/14 00:30:50;;;;;;;0.32;0.32;;;;;;;;;;5053601;28;20036;-74
2021/05/14 00:33:16;;;;;;;1.15;0.30;;;;;;;;;;5053504;28;20037;-74
2021/05/14 00:35:42;;;;;;;0.40;0.30;;;;;;;;;;5053966;28;20040;-74
2021/05/14 00:38:08;;;;;;;0.57;0.57;;;;;;;;;;5053222;28;20093;-75
2021/05/14 00:40:34;;;;;;;0.30;0.30;;;;;;;;;;5053650;28;20021;-74
2021/05/14 00:43:00;;;;;;;0.38;0.20;;;;;;;;;;5053804;28;20033;-74
2021/05/14 00:45:26;;;;;;;0.30;0.30;;;;;;;;;;5053503;28;20111;-74
2021/05/14 00:47:53;;;;;;;0.57;0.40;;;;;;;;;;5052957;28;20076;-74
2021/05/14 00:50:19;;;;;;;0.30;0.30;;;;;;;;;;5048220;28;20056;-74
2021/05/14 00:52:45;;;;;;;0.30;0.30;;;;;;;;;;5033403;28;20092;-74
2021/05/14 00:55:12;;;;;;;0.22;0.22;;;;;;;;;;5033619;28;20215;-74
2021/05/14 00:57:38;;;;;;;0.43;0.40;;;;;;;;;;5033295;28;20523;-74
2021/05/14 01:00:05;;;;;;;0.63;0.63;;;;;;;;;;5033180;28;20443;-75
2021/05/14 01:02:31;;;;;;;0.38;0.30;;;;;;;;;;5032748;28;20104;-74
2021/05/14 01:04:58;;;;;;;0.40;0.40;;;;;;;;;;5033528;28;20045;-74
2021/05/14 01:07:24;;;;;;;0.30;0.20;;;;;;;;;;5032657;28;20404;-74
2021/05/14 01:09:51;;;;;;;0.10;0.10;;;;;;;;;;5033207;28;20472;-74
2021/05/14 01:12:17;;;;;;;0.30;0.30;;;;;;;;;;5032129;28;20021;-74
2021/05/14 01:14:43;;;;;;;0.57;0.30;;;;;;;;;;5033059;28;20061;-74
2021/05/14 01:17:10;;;;;;;0.40;0.30;;;;;;;;;;5032712;28;20036;-74
2021/05/14 01:19:36;;;;;;;0.30;0.30;;;;;;;;;;5033225;28;20022;-74
2021/05/14 01:22:03;;;;;;;0.35;0.35;;;;;;;;;;5032695;28;20022;-74
2021/05/14 01:24:31;;;;;;;0.13;0.10;;;;;;;;;;5032837;28;20216;-74
2021/05/14 01:26:57;;;;;;;0.70;0.20;;;;;;;;;;5032619;28;20565;-74
2021/05/14 01:29:23;;;;;;;0.30;0.20;;;;;;;;;;5031950;28;20056;-74
2021/05/14 01:31:50;;;;;;;0.20;0.20;;;;;;;;;;5032179;28;20041;-74
2021/05/14 01:34:16;;;;;;;0.90;0.85;;;;;;;;;;5032066;28;20519;-74
2021/05/14 01:36:42;;;;;;;0.20;0.20;;;;;;;;;;5032756;28;20057;-74
2021/05/14 01:39:26;;;;;;;0.28;0.28;;;;;;;;;;5032376;28;20029;-74
2021/05/14 01:41:53;;;;;;;0.47;0.22;;;;;;;;;;5032383;28;20022;-74
2021/05/14 01:44:19;;;;;;;0.20;0.20;;;;;;;;;;5031938;28;20030;-74
2021/05/14 01:46:45;;;;;;;0.38;0.35;;;;;;;;;;5032386;28;20407;-74
2021/05/14 01:49:11;;;;;;;0.30;0.10;;;;;;;;;;5031497;28;20124;-74
2021/05/14 01:51:38;;;;;;;0.30;0.10;;;;;;;;;;5045478;28;20422;-74
2021/05/14 01:54:04;;;;;;;0.30;0.30;;;;;;;;;;5052494;28;20029;-74
2021/05/14 01:56:30;;;;;;;0.17;0.17;;;;;;;;;;5052303;28;20037;-74
2021/05/14 01:58:56;;;;;;;0.13;0.13;;;;;;;;;;5052194;28;20060;-74
2021/05/14 02:01:22;;;;;;;0.20;0.20;;;;;;;;;;5051338;28;20024;-74
2021/05/14 02:03:48;;;;;;;0.10;0.10;;;;;;;;;;5051683;28;20074;-74
2021/05/14 02:06:15;;;;;;;0.50;0.20;;;;;;;;;;5051543;28;20101;-74
2021/05/14 02:08:41;;;;;;;0.30;0.20;;;;;;;;;;5052393;28;20029;-74
2021/05/14 02:11:10;;;;;;;0.20;0.20;;;;;;;;;;5051585;28;20108;-74
2021/05/14 02:13:40;;;;;;;0.20;0.20;;;;;;;;;;5051662;28;20032;-74
2021/05/14 02:16:07;;;;;;;1.08;0.45;;;;;;;;;;5051575;28;20455;-72
2021/05/14 02:18:34;;;;;;;0.63;0.20;;;;;;;;;;5051737;28;20027;-72
2021/05/14 02:21:00;;;;;;;0.65;0.52;;;;;;;;;;5051927;28;20032;-72
2021/05/14 02:23:26;;;;;;;0.63;0.50;;;;;;;;;;5051140;28;20028;-72
2021/05/14 02:25:52;;;;;;;0.32;0.32;;;;;;;;;;5051561;28;20078;-73
2021/05/14 02:28:18;;;;;;;0.57;0.35;;;;;;;;;;5051197;28;20063;-75
2021/05/14 02:30:44;;;;;;;0.60;0.60;;;;;;;;;;5051802;28;20036;-74
2021/05/14 02:33:11;;;;;;;0.20;0.20;;;;;;;;;;5050393;28;20041;-74
2021/05/14 02:35:37;;;;;;;0.85;0.55;;;;;;;;;;5051483;28;20227;-74
2021/05/14 02:38:04;;;;;;;0.30;0.30;;;;;;;;;;5050948;28;20032;-74
2021/05/14 02:40:30;;;;;;;0.25;0.20;;;;;;;;;;5050927;28;20017;-74
2021/05/14 02:42:56;;;;;;;0.30;0.30;;;;;;;;;;5051171;28;20033;-74
2021/05/14 02:45:23;;;;;;;0.68;0.68;;;;;;;;;;5051194;28;20135;-74
2021/05/14 02:47:49;;;;;;;0.22;0.22;;;;;;;;;;5054061;28;20052;-74
2021/05/14 02:50:15;;;;;;;0.17;0.17;;;;;;;;;;5048262;28;20457;-74
2021/05/14 02:52:42;;;;;;;0.60;0.50;;;;;;;;;;5050762;28;20369;-74
2021/05/14 02:55:08;;;;;;;0.63;0.40;;;;;;;;;;5050838;28;20476;-74
2021/05/14 02:57:35;;;;;;;1.67;0.32;;;;;;;;;;5050976;28;20092;-74
2021/05/14 03:00:01;;;;;;;0.57;0.20;;;;;;;;;;5050659;28;20511;-74
2021/05/14 03:02:27;;;;;;;0.75;0.20;;;;;;;;;;5050251;28;20116;-74
2021/05/14 03:04:53;;;;;;;0.20;0.20;;;;;;;;;;5051168;28;20029;-74
2021/05/14 03:07:20;;;;;;;0.40;0.40;;;;;;;;;;5050062;28;20025;-74
2021/05/14 03:09:46;;;;;;;0.47;0.30;;;;;;;;;;5050973;28;20024;-74
2021/05/14 03:12:13;;;;;;;0.20;0.20;;;;;;;;;;5049876;28;20036;-74
2021/05/14 03:14:39;;;;;;;0.22;0.22;;;;;;;;;;5050867;28;20100;-74
2021/05/14 03:17:05;;;;;;;0.93;0.85;;;;;;;;;;5050068;28;20029;-74
2021/05/14 03:19:31;;;;;;;0.30;0.30;;;;;;;;;;5050285;28;20527;-74
2021/05/14 03:21:57;;;;;;;0.30;0.30;;;;;;;;;;5050763;28;20048;-74
2021/05/14 03:24:23;;;;;;;0.20;0.20;;;;;;;;;;5050004;28;20033;-74
2021/05/14 03:26:52;;;;;;;0.20;0.10;;;;;;;;;;5050842;28;20033;-74
2021/05/14 03:29:18;;;;;;;1.27;0.40;;;;;;;;;;5049308;28;20036;-74
2021/05/14 03:31:44;;;;;;;1.25;0.40;;;;;;;;;;5050401;28;20224;-74
2021/05/14 03:34:11;;;;;;;0.65;0.40;;;;;;;;;;5049603;28;20061;-74
2021/05/14 03:36:37;;;;;;;1.98;0.30;;;;;;;;;;5050470;28;20104;-74
2021/05/14 03:39:08;;;;;;;0.20;0.20;;;;;;;;;;5050010;28;20032;-74
2021/05/14 03:41:44;;;;;;;0.10;0.10;;;;;;;;;;5050366;28;20047;-74
2021/05/14 03:44:11;;;;;;;0.28;0.28;;;;;;;;;;5049590;28;20023;-74
2021/05/14 03:46:37;;;;;;;0.10;0.10;;;;;;;;;;5050495;28;20487;-74
2021/05/14 03:49:03;;;;;;;0.20;0.20;;;;;;;;;;5049482;28;20076;-74
2021/05/14 03:51:30;;;;;;;0.70;0.47;;;;;;;;;;5049302;28;20060;-74
2021/05/14 03:53:56;;;;;;;0.20;0.20;;;;;;;;;;5049576;28;20059;-74
2021/05/14 03:56:23;;;;;;;0.45;0.20;;;;;;;;;;5049890;28;20095;-74
2021/05/14 03:58:49;;;;;;;1.95;0.20;;;;;;;;;;5049038;28;20040;-74
2021/05/14 04:01:16;;;;;;;1.02;0.35;;;;;;;;;;5048775;28;20476;-74
2021/05/14 04:03:42;;;;;;;0.10;0.10;;;;;;;;;;5049729;28;20017;-74
2021/05/14 04:06:08;;;;;;;0.63;0.30;;;;;;;;;;5049812;28;20033;-74
2021/05/14 04:08:34;;;;;;;0.95;0.43;;;;;;;;;;5050185;28;20055;-74
2021/05/14 04:16:14;;;;;;;0.35;0.30;;;;;;;;;;5049231;28;20523;-74
2021/05/14 04:18:40;;;;;;;0.40;0.40;;;;;;;;;;5049837;28;20098;-74
2021/05/14 04:21:06;;;;;;;0.10;0.10;;;;;;;;;;5048877;28;20517;-74
2021/05/14 04:23:32;;;;;;;0.38;0.30;;;;;;;;;;5049556;28;20024;-74
2021/05/14 04:25:58;;;;;;;0.40;0.20;;;;;;;;;;5049805;28;20037;-74
2021/05/14 04:28:24;;;;;;;1.50;0.57;;;;;;;;;;5049076;28;20040;-74
2021/05/14 04:30:51;;;;;;;0.30;0.30;;;;;;;;;;5049578;28;20033;-74
2021/05/14 04:33:17;;;;;;;2.20;0.40;;;;;;;;;;5048437;28;20472;-74
2021/05/14 04:35:43;;;;;;;0.30;0.30;;;;;;;;;;5049554;28;20490;-74
2021/05/14 04:38:09;;;;;;;0.30;0.30;;;;;;;;;;5049121;28;20021;-74
2021/05/14 04:40:35;;;;;;;0.45;0.30;;;;;;;;;;5049877;28;20037;-74
2021/05/14 04:43:01;;;;;;;0.95;0.40;;;;;;;;;;5049369;28;20025;-74
2021/05/14 04:45:28;;;;;;;0.30;0.10;;;;;;;;;;5049157;28;20032;-74
2021/05/14 04:47:54;;;;;;;0.38;0.25;;;;;;;;;;5044693;28;20053;-74
2021/05/14 04:50:20;;;;;;;1.85;0.38;;;;;;;;;;5033512;28;20031;-74
2021/05/14 04:52:46;;;;;;;0.28;0.28;;;;;;;;;;5049341;28;20479;-74
2021/05/14 04:55:13;;;;;;;0.30;0.30;;;;;;;;;;5048726;28;20032;-74
2021/05/14 04:57:39;;;;;;;0.50;0.43;;;;;;;;;;5049213;28;20115;-74
2021/05/14 05:00:07;;;;;;;0.40;0.40;;;;;;;;;;5048902;28;20102;-74
2021/05/14 05:02:33;;;;;;;1.55;0.65;;;;;;;;;;5049059;28;20033;-73
2021/05/14 05:05:00;;;;;;;0.20;0.20;;;;;;;;;;5049499;28;20363;-73
2021/05/14 05:07:27;;;;;;;0.30;0.30;;;;;;;;;;5048685;28;20110;-74
2021/05/14 05:09:53;;;;;;;0.30;0.30;;;;;;;;;;5069558;28;20029;-74
2021/05/14 05:12:19;;;;;;;0.55;0.30;;;;;;;;;;5072314;28;20068;-73
2021/05/14 05:14:45;;;;;;;0.17;0.10;;;;;;;;;;5072816;28;20024;-73
2021/05/14 05:17:12;;;;;;;0.20;0.20;;;;;;;;;;5072327;28;20032;-73
2021/05/14 05:19:38;;;;;;;0.68;0.30;;;;;;;;;;5072794;28;20453;-73
2021/05/14 05:22:04;;;;;;;1.48;0.43;;;;;;;;;;5072267;28;20140;-73
2021/05/14 05:24:30;;;;;;;0.40;0.40;;;;;;;;;;5072626;28;20167;-73
2021/05/14 05:26:56;;;;;;;0.43;0.40;;;;;;;;;;5072979;28;20032;-73
2021/05/14 05:29:22;;;;;;;0.17;0.17;;;;;;;;;;5071835;28;20028;-73
2021/05/14 05:31:48;;;;;;;0.20;0.20;;;;;;;;;;5072423;28;20463;-73
2021/05/14 05:34:14;;;;;;;0.90;0.40;;;;;;;;;;5072255;28;20086;-74
2021/05/14 05:36:40;;;;;;;1.42;0.65;;;;;;;;;;5072436;28;20103;-73
2021/05/14 05:39:07;;;;;;;0.88;0.32;;;;;;;;;;5072589;28;20028;-73
2021/05/14 05:41:33;;;;;;;0.65;0.55;;;;;;;;;;5072207;28;20053;-73
2021/05/14 05:43:59;;;;;;;0.40;0.40;;;;;;;;;;5072834;28;20028;-73
2021/05/14 05:46:25;;;;;;;1.05;0.63;;;;;;;;;;5072072;28;20044;-73
2021/05/14 05:48:51;;;;;;;1.17;0.13;;;;;;;;;;5071846;28;20502;-75
2021/05/14 05:51:17;;;;;;;0.90;0.43;;;;;;;;;;5058271;28;20479;-73
2021/05/14 05:53:44;;;;;;;2.13;0.73;;;;;;;;;;5056194;28;20252;-73
2021/05/14 05:56:10;;;;;;;1.42;0.50;;;;;;;;;;5049144;28;20032;-74
2021/05/14 05:58:36;;;;;;;1.30;0.63;;;;;;;;;;5047919;28;20037;-74
2021/05/14 06:01:02;;;;;;;2.58;0.85;;;;;;;;;;5051859;28;20051;-74
2021/05/14 06:03:29;;;;;;;1.00;0.40;;;;;;;;;;5069519;28;20090;-74
2021/05/14 06:05:55;;;;;;;2.45;0.50;;;;;;;;;;5069649;28;20026;-73
2021/05/14 06:08:21;;;;;;;1.30;0.85;;;;;;;;;;5068306;28;20489;-74
2021/05/14 06:10:51;;;;;;;1.77;1.10;;;;;;;;;;5070726;28;20078;-74
2021/05/14 06:13:17;;;;;;;4.78;1.15;;;;;;;;;;5069669;28;20119;-74
2021/05/14 06:15:44;;;;;;;0.75;0.55;;;;;;;;;;5071195;28;20032;-73
2021/05/14 06:18:13;;;;;;;0.40;0.40;;;;;;;;;;5069930;28;20108;-74
2021/05/14 06:20:43;;;;;;;0.68;0.40;;;;;;;;;;5068104;28;20025;-73
2021/05/14 06:23:09;;;;;;;1.23;0.50;;;;;;;;;;5068710;28;20474;-72
2021/05/14 06:25:35;;;;;;;2.95;0.85;;;;;;;;;;5070822;28;20025;-73
2021/05/14 06:28:02;;;;;;;0.90;0.57;;;;;;;;;;5069114;28;20025;-73
2021/05/14 06:30:28;;;;;;;1.33;0.50;;;;;;;;;;5067527;28;20025;-73
2021/05/14 06:32:54;;;;;;;0.88;0.40;;;;;;;;;;5070173;28;20064;-73
2021/05/14 06:35:20;;;;;;;0.73;0.57;;;;;;;;;;5066673;28;20064;-75
2021/05/14 06:37:46;;;;;;;0.88;0.43;;;;;;;;;;5061645;28;20031;-75
2021/05/14 06:40:13;;;;;;;0.65;0.50;;;;;;;;;;5063403;28;20028;-75
2021/05/14 06:42:39;;;;;;;0.57;0.55;;;;;;;;;;5066215;28;20032;-75
2021/05/14 06:45:06;;;;;;;0.85;0.63;;;;;;;;;;5067149;28;20031;-76
2021/05/14 06:47:32;;;;;;;2.65;1.05;;;;;;;;;;5065457;28;20024;-75
2021/05/14 06:50:03;;;;;;;2.03;0.50;;;;;;;;;;5069619;28;20032;-74
2021/05/14 06:52:29;;;;;;;2.65;0.50;;;;;;;;;;5087608;28;20156;-73
2021/05/14 06:54:55;;;;;;;0.70;0.50;;;;;;;;;;5088978;28;20081;-74
2021/05/14 06:57:21;;;;;;;2.13;0.52;;;;;;;;;;5071921;28;20021;-73
2021/05/14 06:59:47;;;;;;;1.98;1.00;;;;;;;;;;5066749;28;20031;-74
2021/05/14 07:02:13;;;;;;;1.48;0.88;;;;;;;;;;5065475;28;20391;-74
2021/05/14 07:04:39;;;;;;;0.73;0.50;;;;;;;;;;5068702;28;20040;-74
2021/05/14 07:07:05;;;;;;;0.47;0.40;;;;;;;;;;5056956;28;20063;-74
2021/05/14 07:09:31;;;;;;;1.73;0.68;;;;;;;;;;5052866;28;20024;-73
2021/05/14 07:11:58;;;;;;;0.52;0.30;;;;;;;;;;5067857;28;20025;-74
2021/05/14 07:14:24;;;;;;;1.17;0.60;;;;;;;;;;5067130;28;20045;-73
2021/05/14 07:16:50;;;;;;;1.35;0.90;;;;;;;;;;5067662;28;20048;-74
2021/05/14 07:19:17;;;;;;;2.15;0.60;;;;;;;;;;5067036;28;20211;-74
2021/05/14 07:21:43;;;;;;;1.17;0.73;;;;;;;;;;5066946;28;20039;-73
2021/05/14 07:24:09;;;;;;;0.40;0.30;;;;;;;;;;5066396;28;20032;-74
2021/05/14 07:26:36;;;;;;;1.08;0.57;;;;;;;;;;5067526;28;20082;-73
2021/05/14 07:29:03;;;;;;;0.40;0.40;;;;;;;;;;5058231;28;20093;-73
2021/05/14 07:31:30;;;;;;;1.23;0.50;;;;;;;;;;5062898;28;20021;-73
2021/05/14 07:33:56;;;;;;;0.77;0.57;;;;;;;;;;5069834;28;20574;-73
2021/05/14 07:36:22;;;;;;;1.48;0.60;;;;;;;;;;5064189;28;20033;-74
2021/05/14 07:38:48;;;;;;;0.77;0.77;;;;;;;;;;5056947;28;20013;-74
2021/05/14 07:41:14;;;;;;;1.35;0.70;;;;;;;;;;5050079;28;20104;-74
2021/05/14 07:43:40;;;;;;;1.52;0.70;;;;;;;;;;5029342;28;20413;-74
2021/05/14 07:46:06;;;;;;;0.40;0.40;;;;;;;;;;5047405;28;20052;-74
2021/05/14 07:48:32;;;;;;;0.57;0.50;;;;;;;;;;5055093;28;20045;-73
2021/05/14 07:50:58;;;;;;;1.05;0.93;;;;;;;;;;5076995;28;20070;-73
2021/05/14 07:53:24;;;;;;;0.50;0.50;;;;;;;;;;5085698;28;20036;-73
2021/05/14 07:55:50;;;;;;;0.65;0.60;;;;;;;;;;5070282;28;20035;-73
2021/05/14 07:58:17;;;;;;;2.15;0.60;;;;;;;;;;5055214;28;20025;-73
2021/05/14 08:00:45;;;;;;;0.55;0.55;;;;;;;;;;5053366;28;20021;-73
2021/05/14 08:03:12;;;;;;;1.33;0.60;;;;;;;;;;5058344;28;20016;-74
2021/05/14 08:05:38;;;;;;;1.30;1.05;;;;;;;;;;5086666;28;20482;-73
2021/05/14 08:08:08;;;;;;;0.70;0.50;;;;;;;;;;5086482;28;20024;-74
2021/05/14 08:10:34;;;;;;;0.70;0.70;;;;;;;;;;5062387;28;20722;-74
2021/05/14 08:13:00;;;;;;;1.50;0.88;;;;;;;;;;5065553;28;20035;-74
2021/05/14 08:15:27;;;;;;;0.65;0.30;;;;;;;;;;5063903;28;20063;-74
2021/05/14 08:17:53;;;;;;;0.30;0.30;;;;;;;;;;5066572;28;20394;-74
2021/05/14 08:20:20;;;;;;;1.05;0.52;;;;;;;;;;5065562;28;20082;-74
2021/05/14 08:22:46;;;;;;;0.68;0.55;;;;;;;;;;5065718;28;20060;-73
2021/05/14 08:25:13;;;;;;;0.98;0.82;;;;;;;;;;5065502;28;20021;-74
2021/05/14 08:27:39;;;;;;;0.98;0.50;;;;;;;;;;5066268;28;20100;-74
2021/05/14 08:30:06;;;;;;;0.98;0.40;;;;;;;;;;5065383;28;20059;-75
2021/05/14 08:32:32;;;;;;;0.30;0.30;;;;;;;;;;5065716;28;20114;-74
2021/05/14 08:34:58;;;;;;;1.73;1.05;;;;;;;;;;5066815;28;20024;-74
2021/05/14 08:37:24;;;;;;;0.50;0.50;;;;;;;;;;5065946;28;20068;-74
2021/05/14 08:39:51;;;;;;;0.52;0.30;;;;;;;;;;5067167;28;20103;-74
2021/05/14 08:42:17;;;;;;;1.60;0.60;;;;;;;;;;5065521;28;20663;-74
2021/05/14 08:44:43;;;;;;;0.52;0.52;;;;;;;;;;5067585;28;20487;-74
2021/05/14 08:47:13;;;;;;;0.60;0.55;;;;;;;;;;5070189;28;20035;-75
2021/05/14 08:49:39;;;;;;;0.35;0.30;;;;;;;;;;5070905;28;20418;-74
2021/05/14 08:52:08;;;;;;;0.73;0.60;;;;;;;;;;5089706;28;20032;-74
2021/05/14 08:54:42;;;;;;;1.33;0.57;;;;;;;;;;5090596;28;20035;-74
2021/05/14 08:57:08;;;;;;;0.60;0.60;;;;;;;;;;5090803;28;20069;-74
2021/05/14 08:59:34;;;;;;;0.93;0.60;;;;;;;;;;5081245;28;20052;-74
2021/05/14 09:02:01;;;;;;;5.07;1.35;;;;;;;;;;5070215;28;20107;-74
2021/05/14 09:04:30;;;;;;;0.88;0.60;;;;;;;;;;5070074;28;20136;-73
2021/05/14 09:06:57;;;;;;;0.95;0.60;;;;;;;;;;5071178;28;20024;-74
2021/05/14 09:09:23;;;;;;;1.88;0.77;;;;;;;;;;5063732;28;20721;-74
2021/05/14 09:11:51;;;;;;;1.10;0.55;;;;;;;;;;5059170;28;20028;-74
2021/05/14 09:14:38;;;;;;;1.02;0.73;;;;;;;;;;5058996;28;20024;-74
2021/05/14 09:17:11;;;;;;;2.50;0.98;;;;;;;;;;5070568;28;20036;-74
2021/05/14 09:19:38;;;;;;;0.68;0.68;;;;;;;;;;5070789;28;20025;-73
2021/05/14 09:22:11;;;;;;;4.57;1.48;;;;;;;;;;5069364;28;20036;-74
2021/05/14 09:24:37;;;;;;;0.80;0.77;;;;;;;;;;5070439;28;20158;-74
2021/05/14 09:27:22;;;;;;;0.57;0.50;;;;;;;;;;5070115;28;20035;-73
2021/05/14 09:29:48;;;;;;;1.38;0.60;;;;;;;;;;5063878;28;20032;-73
2021/05/14 09:32:24;;;;;;;1.88;0.68;;;;;;;;;;5068874;28;20028;-73
2021/05/14 09:34:51;;;;;;;1.20;0.40;;;;;;;;;;5068623;28;20060;-73
2021/05/14 09:37:17;;;;;;;0.77;0.50;;;;;;;;;;5069623;28;20054;-74
2021/05/14 09:39:44;;;;;;;1.08;0.98;;;;;;;;;;5070319;28;20024;-73
2021/05/14 09:42:10;;;;;;;0.63;0.35;;;;;;;;;;5068884;28;20052;-74
2021/05/14 09:44:37;;;;;;;1.23;1.10;;;;;;;;;;5070318;28;20040;-74
2021/05/14 09:47:03;;;;;;;1.05;0.55;;;;;;;;;;5069884;28;20104;-73
2021/05/14 09:49:29;;;;;;;1.55;0.90;;;;;;;;;;5069321;28;20076;-73
2021/05/14 09:52:02;;;;;;;1.20;0.90;;;;;;;;;;5087018;28;20046;-73
2021/05/14 09:54:30;;;;;;;0.80;0.75;;;;;;;;;;5089834;28;20504;-77
2021/05/14 09:59:53;;;;;;;0.63;0.60;;;;;;;;;;5086187;28;20134;-73
2021/05/14 10:02:19;;;;;;;1.10;0.52;;;;;;;;;;5068295;28;20108;-73
2021/05/14 10:04:46;;;;;;;1.15;0.60;;;;;;;;;;5069307;28;20086;-74
2021/05/14 10:07:12;;;;;;;0.98;0.57;;;;;;;;;;5068946;28;20055;-77
2021/05/14 10:09:39;;;;;;;0.82;0.68;;;;;;;;;;5070031;28;20033;-74
2021/05/14 10:12:07;;;;;;;0.70;0.47;;;;;;;;;;5068494;28;20104;-74
2021/05/14 10:14:33;;;;;;;3.03;0.75;;;;;;;;;;5068627;28;20045;-73
2021/05/14 10:17:01;;;;;;;0.93;0.93;;;;;;;;;;5068764;28;20043;-73
2021/05/14 10:19:28;;;;;;;0.73;0.68;;;;;;;;;;5067923;28;20032;-75
2021/05/14 10:21:55;;;;;;;1.20;0.55;;;;;;;;;;5059965;28;20063;-74
2021/05/14 10:24:37;;;;;;;0.85;0.40;;;;;;;;;;5047380;28;20025;-74
2021/05/14 10:27:23;;;;;;;1.73;1.23;;;;;;;;;;5048131;28;20025;-74
2021/05/14 10:29:50;;;;;;;1.08;0.60;;;;;;;;;;5046627;28;20037;-73
2021/05/14 10:32:17;;;;;;;1.35;0.55;;;;;;;;;;5046328;28;20100;-73
2021/05/14 10:34:43;;;;;;;1.10;0.90;;;;;;;;;;5048581;28;20032;-73
2021/05/14 10:37:09;;;;;;;1.00;0.60;;;;;;;;;;5047836;28;20028;-73
2021/05/14 10:39:35;;;;;;;2.30;0.75;;;;;;;;;;5030544;28;20021;-73
2021/05/14 10:42:08;;;;;;;0.75;0.55;;;;;;;;;;5039237;28;20029;-73
2021/05/14 10:44:54;;;;;;;1.80;0.82;;;;;;;;;;5048060;28;20025;-73
2021/05/14 10:47:26;;;;;;;1.40;0.50;;;;;;;;;;5047999;28;20427;-73
2021/05/14 10:50:02;;;;;;;1.95;1.08;;;;;;;;;;5048080;28;20037;-73
2021/05/14 10:52:30;;;;;;;0.70;0.55;;;;;;;;;;5062139;28;20097;-73
2021/05/14 10:54:57;;;;;;;0.63;0.63;;;;;;;;;;5068884;28;20497;-73
2021/05/14 10:57:41;;;;;;;0.50;0.50;;;;;;;;;;5067388;28;20508;-73
2021/05/14 11:00:22;;;;;;;0.60;0.50;;;;;;;;;;5067371;28;20031;-73
2021/05/14 11:03:07;;;;;;;0.88;0.50;;;;;;;;;;5066543;28;20032;-73
2021/05/14 11:05:34;;;;;;;1.60;0.70;;;;;;;;;;5067558;28;20115;-73
2021/05/14 11:08:00;;;;;;;0.82;0.40;;;;;;;;;;5067344;28;20031;-73
2021/05/14 11:10:26;;;;;;;1.10;1.00;;;;;;;;;;5067453;28;20087;-73
2021/05/14 11:12:53;;;;;;;3.10;0.75;;;;;;;;;;5066905;28;20040;-73
2021/05/14 11:15:22;;;;;;;0.73;0.45;;;;;;;;;;5067493;28;20125;-73
2021/05/14 11:18:07;;;;;;;1.50;0.40;;;;;;;;;;5068136;28;20081;-73
2021/05/14 11:20:42;;;;;;;0.47;0.43;;;;;;;;;;5067525;28;20028;-73
2021/05/14 11:23:27;;;;;;;1.70;0.50;;;;;;;;;;5066728;28;20035;-74
2021/05/14 11:25:54;;;;;;;0.38;0.38;;;;;;;;;;5067990;28;20417;-73
2021/05/14 11:28:20;;;;;;;0.60;0.40;;;;;;;;;;5066202;28;20032;-73
2021/05/14 11:30:55;;;;;;;0.68;0.40;;;;;;;;;;5065922;28;20036;-73
2021/05/14 11:33:25;;;;;;;0.30;0.30;;;;;;;;;;5065565;28;20033;-73
2021/05/14 11:35:51;;;;;;;0.60;0.47;;;;;;;;;;5064215;28;20021;-73
2021/05/14 11:38:17;;;;;;;1.02;0.93;;;;;;;;;;5054595;28;20040;-74
2021/05/14 11:40:47;;;;;;;1.38;0.65;;;;;;;;;;5056267;28;20025;-73
2021/05/14 11:43:14;;;;;;;0.85;0.30;;;;;;;;;;5053923;28;20051;-73
2021/05/14 11:45:41;;;;;;;3.00;0.77;;;;;;;;;;5050519;28;20225;-73
2021/05/14 11:48:12;;;;;;;0.30;0.30;;;;;;;;;;5065141;28;20045;-73
2021/05/14 11:50:48;;;;;;;0.50;0.38;;;;;;;;;;5059778;28;20025;-73
2021/05/14 11:53:14;;;;;;;1.15;0.40;;;;;;;;;;5062130;28;20031;-73
2021/05/14 11:55:41;;;;;;;0.88;0.55;;;;;;;;;;5067152;28;20107;-74
2021/05/14 11:58:08;;;;;;;1.88;0.65;;;;;;;;;;5066532;28;20021;-74
2021/05/14 12:00:34;;;;;;;0.68;0.43;;;;;;;;;;5055657;28;20216;-73
2021/05/14 12:03:02;;;;;;;0.43;0.40;;;;;;;;;;5055460;28;20028;-73
2021/05/14 12:05:29;;;;;;;1.45;0.60;;;;;;;;;;5055125;28;20025;-73
2021/05/14 12:08:09;;;;;;;1.65;0.32;;;;;;;;;;5064000;28;20561;-73
2021/05/14 12:10:35;;;;;;;1.77;0.40;;;;;;;;;;5060116;28;20024;-73
2021/05/14 12:13:01;;;;;;;0.35;0.35;;;;;;;;;;5065539;28;20033;-73
2021/05/14 12:15:27;;;;;;;0.68;0.60;;;;;;;;;;5067013;28;20086;-73
2021/05/14 12:18:00;;;;;;;2.90;0.93;;;;;;;;;;5066764;28;20035;-73
2021/05/14 12:20:30;;;;;;;0.80;0.50;;;;;;;;;;5076332;28;20028;-73
2021/05/14 12:22:58;;;;;;;1.65;0.30;;;;;;;;;;5086198;28;20040;-73
2021/05/14 12:25:24;;;;;;;0.88;0.82;;;;;;;;;;5084737;28;20489;-74
2021/05/14 12:27:51;;;;;;;0.40;0.40;;;;;;;;;;5073345;28;20081;-73
2021/05/14 12:30:18;;;;;;;0.22;0.20;;;;;;;;;;5065084;28;20097;-73
2021/05/14 12:32:54;;;;;;;0.28;0.28;;;;;;;;;;5066214;28;20516;-73
2021/05/14 12:35:24;;;;;;;1.17;0.30;;;;;;;;;;5066612;28;20047;-73
2021/05/14 12:37:57;;;;;;;0.55;0.40;;;;;;;;;;5067022;28;20033;-73
2021/05/14 12:40:34;;;;;;;0.65;0.35;;;;;;;;;;5066360;28;20055;-73
2021/05/14 12:43:18;;;;;;;0.32;0.30;;;;;;;;;;5066641;28;20045;-73
2021/05/14 12:45:44;;;;;;;0.63;0.40;;;;;;;;;;5067244;28;20033;-74
2021/05/14 12:48:10;;;;;;;1.85;0.30;;;;;;;;;;5066197;28;20048;-73
2021/05/14 12:50:37;;;;;;;4.07;0.63;;;;;;;;;;5041403;28;20128;-73
2021/05/14 12:53:03;;;;;;;0.40;0.32;;;;;;;;;;5045936;28;20037;-73
2021/05/14 12:55:29;;;;;;;0.25;0.22;;;;;;;;;;5046290;28;20029;-73
2021/05/14 12:58:02;;;;;;;1.05;0.40;;;;;;;;;;5046650;28;20031;-73
2021/05/14 13:00:29;;;;;;;0.40;0.30;;;;;;;;;;5045510;28;20025;-73
2021/05/14 13:02:56;;;;;;;0.25;0.25;;;;;;;;;;5046079;28;20040;-73
2021/05/14 13:05:37;;;;;;;0.82;0.52;;;;;;;;;;5046711;28;20466;-73
2021/05/14 13:08:05;;;;;;;0.20;0.20;;;;;;;;;;5046734;28;20029;-72
2021/05/14 13:10:45;;;;;;;0.47;0.47;;;;;;;;;;5056642;28;20550;-72
2021/05/14 13:13:12;;;;;;;0.65;0.30;;;;;;;;;;5065106;28;20116;-73
2021/05/14 13:15:38;;;;;;;0.35;0.35;;;;;;;;;;5066944;28;20041;-73
2021/05/14 13:18:05;;;;;;;1.80;0.38;;;;;;;;;;5065416;28;20028;-73
2021/05/14 13:20:31;;;;;;;0.45;0.30;;;;;;;;;;5059551;28;20586;-72
2021/05/14 13:22:58;;;;;;;0.30;0.30;;;;;;;;;;5065500;28;20036;-72
2021/05/14 13:25:24;;;;;;;4.60;1.13;;;;;;;;;;5065899;28;20421;-72
2021/05/14 13:27:50;;;;;;;0.85;0.80;;;;;;;;;;5066406;28;20024;-72
2021/05/14 13:30:16;;;;;;;0.68;0.68;;;;;;;;;;5064813;28;20131;-72
2021/05/14 13:32:43;;;;;;;1.15;0.55;;;;;;;;;;5068857;28;20483;-73
2021/05/14 13:35:09;;;;;;;0.50;0.35;;;;;;;;;;5068821;28;20027;-73
2021/05/14 13:37:35;;;;;;;0.65;0.65;;;;;;;;;;5069796;28;20600;-73
2021/05/14 13:40:03;;;;;;;1.23;1.13;;;;;;;;;;5069374;28;20426;-73
2021/05/14 13:42:30;;;;;;;0.75;0.57;;;;;;;;;;5065688;28;20025;-73
2021/05/14 13:44:56;;;;;;;1.05;0.38;;;;;;;;;;5069651;28;20033;-73
2021/05/14 13:47:22;;;;;;;1.85;0.47;;;;;;;;;;5068758;28;20077;-73
2021/05/14 13:49:48;;;;;;;0.70;0.70;;;;;;;;;;5069729;28;20029;-73
2021/05/14 13:52:14;;;;;;;1.02;0.47;;;;;;;;;;5057388;28;20079;-73
2021/05/14 13:54:40;;;;;;;0.65;0.47;;;;;;;;;;5058408;28;20024;-72
2021/05/14 13:57:06;;;;;;;1.48;0.63;;;;;;;;;;5059384;28;20028;-73
2021/05/14 13:59:33;;;;;;;1.70;0.75;;;;;;;;;;5048811;28;20099;-73
2021/05/14 14:01:59;;;;;;;0.75;0.40;;;;;;;;;;5045655;28;20063;-73
2021/05/14 14:04:25;;;;;;;0.40;0.40;;;;;;;;;;5056404;28;20036;-72
2021/05/14 14:06:52;;;;;;;1.10;0.88;;;;;;;;;;5050409;28;20072;-72
2021/05/14 14:09:18;;;;;;;0.80;0.80;;;;;;;;;;5049178;28;20090;-72
2021/05/14 14:11:48;;;;;;;0.70;0.70;;;;;;;;;;5054230;28;20075;-72
2021/05/14 14:14:14;;;;;;;0.98;0.82;;;;;;;;;;5068612;28;20173;-72
2021/05/14 14:16:40;;;;;;;0.80;0.60;;;;;;;;;;5069988;28;20024;-72
2021/05/14 14:19:06;;;;;;;0.90;0.90;;;;;;;;;;5069114;28;20471;-72
2021/05/14 14:21:33;;;;;;;0.75;0.75;;;;;;;;;;5067396;28;20359;-72
2021/05/14 14:23:59;;;;;;;1.58;0.77;;;;;;;;;;5046822;28;20210;-72
2021/05/14 14:26:25;;;;;;;1.15;0.50;;;;;;;;;;5048095;28;20033;-73
2021/05/14 14:28:51;;;;;;;0.65;0.65;;;;;;;;;;5048862;28;20025;-73
2021/05/14 14:31:17;;;;;;;1.27;0.70;;;;;;;;;;5047600;28;20025;-73
2021/05/14 14:33:43;;;;;;;1.20;1.10;;;;;;;;;;5048820;28;20037;-74
2021/05/14 14:36:10;;;;;;;0.70;0.70;;;;;;;;;;5048886;28;20550;-74
2021/05/14 14:38:36;;;;;;;3.45;1.20;;;;;;;;;;5049122;28;20031;-73
2021/05/14 14:41:02;;;;;;;4.03;1.50;;;;;;;;;;5049063;28;20027;-73
2021/05/14 14:43:28;;;;;;;9.30;1.55;;;;;;;;;;5043033;28;20789;-72
2021/05/14 14:45:54;;;;;;;6.20;1.88;;;;;;;;;;5057145;28;20021;-72
2021/05/14 14:48:20;;;;;;;10.38;1.80;;;;;;;;;;5064562;28;20127;-72
2021/05/14 14:50:47;;;;;;;7.13;3.10;;;;;;;;;;5066700;28;20083;-72
2021/05/14 14:53:13;;;;;;;17.58;3.55;;;;;;;;;;5066897;28;20538;-72